createdAt,value
2022-12-29T00:01:58.463Z,-5.87
2022-12-29T00:07:06.568Z,-5.85
2022-12-29T00:12:11.612Z,-5.78
2022-12-29T00:17:16.672Z,-5.71
2022-12-29T00:22:41.833Z,-5.71
2022-12-29T00:28:07.263Z,-5.58
2022-12-29T00:33:36.521Z,-5.46
2022-12-29T00:39:06.026Z,-5.36
2022-12-29T00:44:12.273Z,-5.32
2022-12-29T00:49:32.942Z,-5.20
2022-12-29T00:54:40.668Z,-5.08
2022-12-29T00:59:45.894Z,-4.98
2022-12-29T01:04:53.465Z,-4.85
2022-12-29T01:10:13.629Z,-4.77
2022-12-29T01:15:18.757Z,-4.61
2022-12-29T01:20:24.007Z,-4.50
2022-12-29T01:25:28.952Z,-4.41
2022-12-29T01:30:33.608Z,-4.29
2022-12-29T01:35:38.949Z,-4.22
2022-12-29T01:40:51.317Z,-4.12
2022-12-29T01:45:57.782Z,-4.02
2022-12-29T01:51:03.156Z,-3.90
2022-12-29T01:56:14.160Z,-3.73
2022-12-29T02:01:22.892Z,-3.64
2022-12-29T02:06:35.547Z,-3.50
2022-12-29T02:11:42.731Z,-3.39
2022-12-29T02:17:18.144Z,-3.23
2022-12-29T02:22:26.161Z,-3.06
2022-12-29T02:28:12.723Z,-2.97
2022-12-29T02:33:30.071Z,-2.85
2022-12-29T02:38:34.692Z,-2.71
2022-12-29T02:43:52.231Z,-2.64
2022-12-29T02:49:08.386Z,-2.53
2022-12-29T02:54:32.570Z,-2.41
2022-12-29T02:59:37.347Z,-2.37
2022-12-29T03:05:10.479Z,-2.26
2022-12-29T03:10:44.720Z,-2.06
2022-12-29T03:16:09.586Z,-1.95
2022-12-29T03:21:21.091Z,-1.88
2022-12-29T03:26:26.084Z,-1.81
2022-12-29T03:31:31.441Z,-1.73
2022-12-29T03:36:50.407Z,-1.70
2022-12-29T03:42:05.978Z,-1.56
2022-12-29T03:47:12.940Z,-1.51
2022-12-29T03:52:18.222Z,-1.43
2022-12-29T03:57:24.177Z,-1.36
2022-12-29T04:02:37.192Z,-1.26
2022-12-29T04:07:43.050Z,-1.25
2022-12-29T04:12:48.787Z,-1.04
2022-12-29T04:17:54.688Z,-0.87
2022-12-29T04:23:07.493Z,-0.75
2022-12-29T04:28:13.550Z,-0.62
2022-12-29T04:33:37.075Z,-0.49
2022-12-29T04:38:42.106Z,-0.41
2022-12-29T04:43:47.517Z,-0.27
2022-12-29T04:49:12.464Z,-0.20
2022-12-29T04:54:27.215Z,-0.21
2022-12-29T04:59:44.841Z,-0.12
2022-12-29T05:04:50.046Z,-0.02
2022-12-29T05:09:55.719Z,-0.02
2022-12-29T05:15:01.056Z,0.08
2022-12-29T05:20:07.613Z,0.16
2022-12-29T05:25:13.629Z,0.18
2022-12-29T05:30:45.391Z,0.30
2022-12-29T05:35:50.426Z,0.38
2022-12-29T05:40:56.506Z,0.42
2022-12-29T05:46:22.524Z,0.51
2022-12-29T05:51:47.951Z,0.59
2022-12-29T05:56:52.793Z,0.60
2022-12-29T06:01:59.555Z,0.57
2022-12-29T06:07:04.772Z,0.61
2022-12-29T06:12:28.024Z,0.65
2022-12-29T06:17:33.816Z,0.59
2022-12-29T06:22:39.824Z,0.67
2022-12-29T06:27:45.773Z,0.73
2022-12-29T06:32:50.939Z,0.73
2022-12-29T06:37:58.544Z,0.71
2022-12-29T06:43:03.714Z,0.72
2022-12-29T06:48:18.072Z,0.71
2022-12-29T06:53:27.043Z,0.69
2022-12-29T06:58:32.441Z,0.71
2022-12-29T07:03:38.612Z,0.78
2022-12-29T07:08:44.069Z,0.65
2022-12-29T07:13:50.207Z,0.61
2022-12-29T07:18:55.579Z,0.50
2022-12-29T07:24:01.898Z,0.31
2022-12-29T07:29:07.944Z,0.12
2022-12-29T07:34:12.655Z,-0.06
2022-12-29T07:39:17.921Z,-0.25
2022-12-29T07:44:24.177Z,-0.39
2022-12-29T07:49:50.427Z,-0.55
2022-12-29T07:54:55.544Z,-0.69
2022-12-29T08:00:01.269Z,-0.81
2022-12-29T08:05:15.875Z,-0.91
2022-12-29T08:10:21.285Z,-1.02
2022-12-29T08:15:30.423Z,-1.10
2022-12-29T08:20:37.769Z,-1.19
2022-12-29T08:25:42.835Z,-1.27
2022-12-29T08:30:48.245Z,-1.39
2022-12-29T08:35:53.680Z,-1.45
2022-12-29T08:41:00.611Z,-1.56
2022-12-29T08:46:06.357Z,-1.68
2022-12-29T08:51:11.742Z,-1.79
2022-12-29T08:56:16.861Z,-1.88
2022-12-29T09:01:27.559Z,-2.00
2022-12-29T09:06:38.077Z,-2.11
2022-12-29T09:11:45.755Z,-2.23
2022-12-29T09:17:09.544Z,-2.33
2022-12-29T09:22:14.816Z,-2.40
2022-12-29T09:27:19.882Z,-2.45
2022-12-29T09:32:26.498Z,-2.56
2022-12-29T09:37:35.288Z,-2.65
2022-12-29T09:43:09.096Z,-2.76
2022-12-29T09:48:37.439Z,-2.82
2022-12-29T09:54:07.135Z,-2.89
2022-12-29T09:59:22.954Z,-2.96
2022-12-29T10:04:31.624Z,-3.01
2022-12-29T10:09:41.232Z,-3.10
2022-12-29T10:15:08.855Z,-3.15
2022-12-29T10:20:32.326Z,-3.22
2022-12-29T10:25:41.744Z,-3.29
2022-12-29T10:30:49.247Z,-3.33
2022-12-29T10:35:54.651Z,-3.43
2022-12-29T10:41:13.151Z,-3.51
2022-12-29T10:46:32.037Z,-3.64
2022-12-29T10:51:44.132Z,-3.76
2022-12-29T10:57:06.063Z,-3.88
2022-12-29T11:02:13.659Z,-3.92
2022-12-29T11:07:27.322Z,-3.95
2022-12-29T11:12:35.017Z,-4.01
2022-12-29T11:17:53.570Z,-4.09
2022-12-29T11:22:58.926Z,-4.19
2022-12-29T11:28:18.024Z,-4.36
2022-12-29T11:33:22.788Z,-4.49
2022-12-29T11:38:45.973Z,-4.59
2022-12-29T11:43:51.271Z,-4.81
2022-12-29T11:49:00.698Z,-4.97
2022-12-29T11:54:07.603Z,-4.98
2022-12-29T11:59:32.342Z,-4.98
2022-12-29T12:04:40.786Z,-5.07
2022-12-29T12:09:53.397Z,-5.26
2022-12-29T12:15:03.772Z,-5.47
2022-12-29T12:20:48.351Z,-5.65
2022-12-29T12:26:12.060Z,-5.85
2022-12-29T12:31:34.358Z,-5.98
2022-12-29T12:37:03.990Z,-6.07
2022-12-29T12:42:15.455Z,-6.15
2022-12-29T12:47:42.104Z,-6.21
2022-12-29T12:53:08.689Z,-6.38
2022-12-29T12:58:40.298Z,-6.51
2022-12-29T13:04:03.877Z,-6.60
2022-12-29T13:09:30.494Z,-6.63
2022-12-29T13:15:19.426Z,-6.70
2022-12-29T13:20:42.229Z,-6.76
2022-12-29T13:26:19.489Z,-6.79
2022-12-29T13:31:36.452Z,-6.82
2022-12-29T13:36:50.979Z,-6.86
2022-12-29T13:42:01.702Z,-6.88
2022-12-29T13:47:30.416Z,-6.95
2022-12-29T13:52:46.830Z,-7.05
2022-12-29T13:58:03.663Z,-7.09
2022-12-29T14:03:35.508Z,-7.11
2022-12-29T14:08:41.603Z,-7.17
2022-12-29T14:13:50.621Z,-7.10
2022-12-29T14:18:59.486Z,-7.11
2022-12-29T14:24:40.109Z,-7.12
2022-12-29T14:29:53.110Z,-7.12
2022-12-29T14:35:02.504Z,-7.04
2022-12-29T14:40:28.685Z,-6.95
2022-12-29T14:45:39.928Z,-6.92
2022-12-29T14:50:46.842Z,-6.87
2022-12-29T14:55:59.955Z,-6.92
2022-12-29T15:01:06.022Z,-7.01
2022-12-29T15:06:14.302Z,-7.14
2022-12-29T15:11:25.850Z,-7.31
2022-12-29T15:16:39.244Z,-7.36
2022-12-29T15:21:47.425Z,-7.42
2022-12-29T15:26:55.718Z,-7.48
2022-12-29T15:32:04.393Z,-7.54
2022-12-29T15:37:11.243Z,-7.63
2022-12-29T15:42:27.558Z,-7.61
2022-12-29T15:47:34.809Z,-7.59
2022-12-29T15:52:44.270Z,-7.59
2022-12-29T15:57:49.180Z,-7.58
2022-12-29T16:02:56.215Z,-7.64
2022-12-29T16:08:03.892Z,-7.66
2022-12-29T16:13:42.223Z,-7.68
2022-12-29T16:18:53.423Z,-7.77
2022-12-29T16:24:07.326Z,-7.87
2022-12-29T16:29:16.418Z,-7.98
2022-12-29T16:34:49.348Z,-8.09
2022-12-29T16:39:56.370Z,-8.19
2022-12-29T16:45:12.482Z,-8.22
2022-12-29T16:50:28.605Z,-8.23
2022-12-29T16:55:34.583Z,-8.26
2022-12-29T17:00:39.766Z,-8.16
2022-12-29T17:05:44.794Z,-8.14
2022-12-29T17:11:09.726Z,-8.13
2022-12-29T17:16:14.933Z,-8.13
2022-12-29T17:21:19.494Z,-8.15
2022-12-29T17:26:24.092Z,-8.23
2022-12-29T17:31:28.788Z,-8.27
2022-12-29T17:36:33.399Z,-8.32
2022-12-29T17:41:39.854Z,-8.37
2022-12-29T17:46:44.469Z,-8.41
2022-12-29T17:51:49.557Z,-8.56
2022-12-29T17:56:54.685Z,-8.77
2022-12-29T18:02:00.279Z,-8.83
2022-12-29T18:07:12.347Z,-8.87
2022-12-29T18:12:32.047Z,-8.84
2022-12-29T18:17:36.577Z,-8.80
2022-12-29T18:22:41.173Z,-8.78
2022-12-29T18:27:45.748Z,-8.74
2022-12-29T18:32:50.274Z,-8.70
2022-12-29T18:37:54.889Z,-8.88
2022-12-29T18:43:01.265Z,-9.03
2022-12-29T18:48:06.027Z,-9.13
2022-12-29T18:53:21.894Z,-9.20
2022-12-29T18:58:33.773Z,-9.21
2022-12-29T19:03:38.924Z,-9.25
2022-12-29T19:08:43.889Z,-9.29
2022-12-29T19:13:48.437Z,-9.26
2022-12-29T19:19:08.820Z,-9.19
2022-12-29T19:24:14.293Z,-9.17
2022-12-29T19:29:19.149Z,-9.21
2022-12-29T19:34:23.686Z,-9.25
2022-12-29T19:39:30.020Z,-9.34
2022-12-29T19:44:34.607Z,-9.37
2022-12-29T19:49:39.487Z,-9.39
2022-12-29T19:54:44.954Z,-9.44
2022-12-29T19:59:50.236Z,-9.48
2022-12-29T20:04:55.124Z,-9.50
2022-12-29T20:10:00.728Z,-9.57
2022-12-29T20:15:06.974Z,-9.60
2022-12-29T20:20:13.063Z,-9.61
2022-12-29T20:30:42.306Z,-9.69
2022-12-29T20:35:46.939Z,-9.72
2022-12-29T20:40:51.883Z,-9.71
2022-12-29T20:45:56.483Z,-9.62
2022-12-29T20:51:01.807Z,-9.64
2022-12-29T20:56:26.990Z,-9.65
2022-12-29T21:01:31.795Z,-9.81
2022-12-29T21:06:37.281Z,-10.02
2022-12-29T21:11:41.861Z,-10.16
2022-12-29T21:16:47.510Z,-10.28
2022-12-29T21:21:52.740Z,-10.40
2022-12-29T21:26:57.332Z,-10.41
2022-12-29T21:32:06.819Z,-10.44
2022-12-29T21:37:11.632Z,-10.45
2022-12-29T21:42:16.322Z,-10.44
2022-12-29T21:47:20.901Z,-10.46
2022-12-29T21:52:25.480Z,-10.45
2022-12-29T21:57:48.029Z,-10.41
2022-12-29T22:03:16.646Z,-10.36
2022-12-29T22:08:43.237Z,-10.27
2022-12-29T22:13:47.777Z,-10.28
2022-12-29T22:18:53.989Z,-10.36
2022-12-29T22:23:58.527Z,-10.42
2022-12-29T22:29:03.062Z,-10.51
2022-12-29T22:34:07.732Z,-10.63
2022-12-29T22:39:12.341Z,-10.68
2022-12-29T22:44:16.906Z,-10.73
2022-12-29T22:49:21.497Z,-10.77
2022-12-29T22:54:26.159Z,-10.88
2022-12-29T22:59:30.797Z,-10.96
2022-12-29T23:05:02.350Z,-10.98
2022-12-29T23:10:01.506Z,-11.06
2022-12-29T23:15:10.960Z,-11.01
2022-12-29T23:20:25.410Z,-11.00
2022-12-29T23:25:30.026Z,-10.94
2022-12-29T23:30:35.878Z,-10.92
2022-12-29T23:35:40.694Z,-10.91
2022-12-29T23:40:45.278Z,-10.84
2022-12-29T23:45:51.265Z,-10.80
2022-12-29T23:50:57.912Z,-10.79
2022-12-29T23:56:02.792Z,-10.84
